createdAt,value
2024-01-18T00:01:41.877Z,100.00
2024-01-18T00:12:07.279Z,99.95
2024-01-18T00:22:35.063Z,99.99
2024-01-18T00:33:02.251Z,100.00
2024-01-18T00:43:30.155Z,100.00
2024-01-18T00:53:55.346Z,100.00
2024-01-18T01:04:22.988Z,100.00
2024-01-18T01:14:48.494Z,100.00
2024-01-18T01:25:24.980Z,100.00
2024-01-18T01:35:51.196Z,100.00
2024-01-18T01:46:17.893Z,100.00
2024-01-18T01:56:46.325Z,100.00
2024-01-18T02:07:13.838Z,100.00
2024-01-18T02:17:39.632Z,100.00
2024-01-18T02:28:06.391Z,100.00
2024-01-18T02:38:33.602Z,100.00
2024-01-18T02:48:58.619Z,100.00
2024-01-18T02:59:22.532Z,100.00
2024-01-18T03:09:48.397Z,100.00
2024-01-18T03:20:15.503Z,100.00
2024-01-18T03:30:40.126Z,100.00
2024-01-18T03:41:06.367Z,100.00
2024-01-18T03:51:30.797Z,100.00
2024-01-18T04:01:58.875Z,100.00
2024-01-18T04:12:25.046Z,100.00
2024-01-18T04:22:50.078Z,100.00
2024-01-18T04:33:17.837Z,100.00
2024-01-18T04:43:43.928Z,100.00
2024-01-18T04:54:10.192Z,100.00
2024-01-18T05:04:35.819Z,100.00
2024-01-18T05:15:05.238Z,100.00
2024-01-18T05:25:30.754Z,100.00
2024-01-18T05:35:57.234Z,100.00
2024-01-18T05:46:28.212Z,100.00
2024-01-18T05:56:57.571Z,100.00
2024-01-18T06:07:41.896Z,100.00
2024-01-18T06:18:10.809Z,100.00
2024-01-18T06:28:38.263Z,100.00
2024-01-18T06:39:14.079Z,100.00
2024-01-18T06:49:40.893Z,100.00
2024-01-18T07:00:24.913Z,100.00
2024-01-18T07:11:00.263Z,100.00
2024-01-18T07:22:08.419Z,100.00
2024-01-18T07:34:56.300Z,100.00
2024-01-18T07:49:50.632Z,100.00
2024-01-18T08:14:37.790Z,100.00
2024-01-18T08:38:54.444Z,100.00
2024-01-18T09:02:47.101Z,100.00
2024-01-18T09:13:55.285Z,100.00
2024-01-18T09:26:00.792Z,100.00
2024-01-18T09:37:51.271Z,100.00
2024-01-18T09:49:02.154Z,100.00
2024-01-18T09:59:35.448Z,99.74
2024-01-18T10:10:04.794Z,98.46
2024-01-18T10:20:42.595Z,99.00
2024-01-18T10:31:13.790Z,98.01
2024-01-18T10:42:00.298Z,98.12
2024-01-18T10:53:01.005Z,97.74
2024-01-18T11:03:29.410Z,97.24
2024-01-18T11:13:55.036Z,95.98
2024-01-18T11:24:24.010Z,95.69
2024-01-18T11:35:10.404Z,96.12
2024-01-18T11:46:25.102Z,95.75
2024-01-18T11:57:24.020Z,95.99
2024-01-18T12:08:51.365Z,95.81
2024-01-18T12:19:53.505Z,94.52
2024-01-18T12:31:04.536Z,96.33
2024-01-18T12:42:15.336Z,96.51
2024-01-18T12:52:46.011Z,96.36
2024-01-18T13:04:11.419Z,96.20
2024-01-18T13:15:18.309Z,95.97
2024-01-18T13:27:17.556Z,96.63
2024-01-18T13:39:26.009Z,96.43
2024-01-18T14:14:46.598Z,96.69
2024-01-18T14:27:23.583Z,96.19
2024-01-18T15:26:32.876Z,97.97
2024-01-18T15:37:49.350Z,98.23
2024-01-18T15:49:14.893Z,98.00
2024-01-18T16:00:34.425Z,98.03
2024-01-18T16:11:58.164Z,98.29
2024-01-18T16:23:47.976Z,98.27
2024-01-18T16:35:19.647Z,98.52
2024-01-18T16:47:05.494Z,99.03
2024-01-18T17:00:34.973Z,99.46
2024-01-18T17:11:21.161Z,99.69
2024-01-18T17:22:52.090Z,99.99
2024-01-18T17:34:56.364Z,100.00
2024-01-18T17:47:22.154Z,100.00
2024-01-18T18:01:46.537Z,100.00
2024-01-18T18:14:11.904Z,100.00
2024-01-18T18:26:56.642Z,100.00
2024-01-18T18:40:03.032Z,100.00
2024-01-18T18:53:08.719Z,100.00
2024-01-18T19:06:15.687Z,100.00
2024-01-18T19:19:23.273Z,100.00
2024-01-18T20:07:21.278Z,100.00
2024-01-18T20:41:44.809Z,100.00
2024-01-18T20:54:04.558Z,100.00
2024-01-18T21:06:04.135Z,100.00
2024-01-18T21:18:28.676Z,100.00
2024-01-18T21:42:48.721Z,100.00
2024-01-18T22:18:12.169Z,100.00
2024-01-18T23:06:42.559Z,100.00
2024-01-18T23:31:57.945Z,100.00
2024-01-18T23:58:27.944Z,100.00
